Pagrindinis puslapis
METAR-TAF:

METAR-TAF

Oro uostai :

Chiang Rai, Tailandas

platuma: 19-57-08N, ilguma: 099-52-59E, Aukštis: 390 m

Dabartinis oras

Ataskaita buvo paskelbta 48 minutes, ne 12:00 UTC
Vėjas 3 kt iš Vakarų/Pietvakarių
Temperatūra 25°C
Drėgmė 79%
Slėgis 1013 hPa
Matomumas 10 km arba daugiau
nėra debesų žemiau 1500 m ir nėra kamuolinių lietaus debesų

METAR: VTCT 151200Z 25003KT CAVOK 25/21 Q1013 NOSIG

Laikas: 19:48 (12:48 UTC)

Prognozė

Ataskaita buvo paskelbta 1 valandą ir 48 minutes, ne 11:00 UTC
Prognozė galioja nuo 15 metu 12 UTC su 16 metu 18 UTC
Vėjas 5 kt iš Pietų/Pietryčių
Matomumas 10 km arba daugiau
Mažai debesys ne aukštis 2500 ft

TAF: VTCT 151100Z 1512/1618 16005KT 9999 FEW025

Orai ataskaitas ir orų prognozės (METAR, TAF).

turimą stotys yra geltonos ir raudonos taškus žemėlapyje.

Perkelti pele per norėdami pamatyti stoties vardą.

Tada spustelėkite, norėdami matyti oro stebėjimo ir prognozės.

Norėdami pakeisti žemėlapį: spustelėkite ant žalios mygtukų su juodo kryžiaus žemyn,; žalią mygtuką su brūkšneliu, jei norite nutolinti; arba žalių rodyklių gretimoms žemėlapius.


METAR-TAF: